sensor_id;sensor_type;location;lat;lon;timestamp;P1;durP1;ratioP1;P2;durP2;ratioP2
5452;SDS011;2749;53.576;9.822;2022-12-10T00:01:51;33.33;;;18.83;;
5452;SDS011;2749;53.576;9.822;2022-12-10T00:04:18;28.27;;;17.77;;
5452;SDS011;2749;53.576;9.822;2022-12-10T00:06:44;31.60;;;18.57;;
5452;SDS011;2749;53.576;9.822;2022-12-10T00:09:11;36.77;;;19.17;;
5452;SDS011;2749;53.576;9.822;2022-12-10T00:11:38;28.57;;;16.67;;
5452;SDS011;2749;53.576;9.822;2022-12-10T00:14:04;39.43;;;18.93;;
5452;SDS011;2749;53.576;9.822;2022-12-10T00:16:32;37.30;;;21.20;;
5452;SDS011;2749;53.576;9.822;2022-12-10T00:18:58;30.17;;;19.73;;
5452;SDS011;2749;53.576;9.822;2022-12-10T00:21:26;26.20;;;18.33;;
5452;SDS011;2749;53.576;9.822;2022-12-10T00:23:52;30.27;;;17.60;;
5452;SDS011;2749;53.576;9.822;2022-12-10T00:26:21;26.57;;;16.10;;
5452;SDS011;2749;53.576;9.822;2022-12-10T00:28:48;33.87;;;18.47;;
5452;SDS011;2749;53.576;9.822;2022-12-10T00:31:15;32.80;;;17.60;;
5452;SDS011;2749;53.576;9.822;2022-12-10T00:33:41;33.70;;;19.10;;
5452;SDS011;2749;53.576;9.822;2022-12-10T00:36:12;31.43;;;16.33;;
5452;SDS011;2749;53.576;9.822;2022-12-10T00:38:39;30.20;;;17.80;;
5452;SDS011;2749;53.576;9.822;2022-12-10T00:41:05;38.53;;;19.60;;
5452;SDS011;2749;53.576;9.822;2022-12-10T00:43:31;40.07;;;20.43;;
5452;SDS011;2749;53.576;9.822;2022-12-10T00:45:57;34.83;;;18.13;;
5452;SDS011;2749;53.576;9.822;2022-12-10T00:48:23;42.67;;;21.10;;
5452;SDS011;2749;53.576;9.822;2022-12-10T00:53:21;49.97;;;22.37;;
5452;SDS011;2749;53.576;9.822;2022-12-10T00:55:47;39.57;;;20.57;;
5452;SDS011;2749;53.576;9.822;2022-12-10T00:58:13;40.70;;;20.40;;
5452;SDS011;2749;53.576;9.822;2022-12-10T01:00:39;36.60;;;21.07;;
5452;SDS011;2749;53.576;9.822;2022-12-10T01:03:05;36.47;;;20.10;;
5452;SDS011;2749;53.576;9.822;2022-12-10T01:05:31;38.07;;;19.10;;
5452;SDS011;2749;53.576;9.822;2022-12-10T01:07:57;39.20;;;20.10;;
5452;SDS011;2749;53.576;9.822;2022-12-10T01:10:23;37.40;;;20.10;;
5452;SDS011;2749;53.576;9.822;2022-12-10T01:12:49;36.97;;;21.20;;
5452;SDS011;2749;53.576;9.822;2022-12-10T01:15:15;34.10;;;18.73;;
5452;SDS011;2749;53.576;9.822;2022-12-10T01:17:41;41.07;;;20.37;;
5452;SDS011;2749;53.576;9.822;2022-12-10T01:20:07;30.83;;;18.33;;
5452;SDS011;2749;53.576;9.822;2022-12-10T01:22:33;33.73;;;18.13;;
5452;SDS011;2749;53.576;9.822;2022-12-10T01:24:58;36.47;;;20.40;;
5452;SDS011;2749;53.576;9.822;2022-12-10T01:27:24;36.43;;;19.33;;
5452;SDS011;2749;53.576;9.822;2022-12-10T01:29:50;41.70;;;17.10;;
5452;SDS011;2749;53.576;9.822;2022-12-10T01:32:16;32.83;;;18.10;;
5452;SDS011;2749;53.576;9.822;2022-12-10T01:34:42;32.93;;;17.40;;
5452;SDS011;2749;53.576;9.822;2022-12-10T01:37:08;34.03;;;17.07;;
5452;SDS011;2749;53.576;9.822;2022-12-10T01:39:34;30.30;;;17.30;;
5452;SDS011;2749;53.576;9.822;2022-12-10T01:42:00;39.80;;;16.83;;
5452;SDS011;2749;53.576;9.822;2022-12-10T01:46:53;31.33;;;17.03;;
5452;SDS011;2749;53.576;9.822;2022-12-10T01:49:24;34.07;;;16.07;;
5452;SDS011;2749;53.576;9.822;2022-12-10T01:51:53;38.00;;;17.40;;
5452;SDS011;2749;53.576;9.822;2022-12-10T01:54:24;38.70;;;19.27;;
5452;SDS011;2749;53.576;9.822;2022-12-10T01:56:51;27.30;;;16.60;;
5452;SDS011;2749;53.576;9.822;2022-12-10T01:59:20;36.63;;;17.70;;
5452;SDS011;2749;53.576;9.822;2022-12-10T02:01:56;30.43;;;15.20;;
5452;SDS011;2749;53.576;9.822;2022-12-10T02:04:41;31.90;;;19.57;;
5452;SDS011;2749;53.576;9.822;2022-12-10T02:07:30;28.47;;;15.63;;
5452;SDS011;2749;53.576;9.822;2022-12-10T02:10:16;25.53;;;17.37;;
5452;SDS011;2749;53.576;9.822;2022-12-10T02:12:53;35.03;;;18.40;;
5452;SDS011;2749;53.576;9.822;2022-12-10T02:15:26;27.60;;;15.90;;
5452;SDS011;2749;53.576;9.822;2022-12-10T02:17:54;25.93;;;15.90;;
5452;SDS011;2749;53.576;9.822;2022-12-10T02:20:22;31.77;;;17.13;;
5452;SDS011;2749;53.576;9.822;2022-12-10T02:22:50;24.47;;;13.90;;
5452;SDS011;2749;53.576;9.822;2022-12-10T02:25:19;28.40;;;15.40;;
5452;SDS011;2749;53.576;9.822;2022-12-10T02:30:30;23.83;;;14.17;;
5452;SDS011;2749;53.576;9.822;2022-12-10T02:32:57;25.60;;;14.60;;
5452;SDS011;2749;53.576;9.822;2022-12-10T02:35:25;30.00;;;15.90;;
5452;SDS011;2749;53.576;9.822;2022-12-10T02:37:53;18.83;;;11.80;;
5452;SDS011;2749;53.576;9.822;2022-12-10T02:40:23;24.23;;;13.23;;
5452;SDS011;2749;53.576;9.822;2022-12-10T02:42:51;25.43;;;13.70;;
5452;SDS011;2749;53.576;9.822;2022-12-10T02:45:17;26.53;;;15.97;;
5452;SDS011;2749;53.576;9.822;2022-12-10T02:47:44;25.97;;;15.63;;
5452;SDS011;2749;53.576;9.822;2022-12-10T02:50:10;31.57;;;17.20;;
5452;SDS011;2749;53.576;9.822;2022-12-10T02:52:38;26.00;;;16.63;;
5452;SDS011;2749;53.576;9.822;2022-12-10T02:55:04;23.90;;;13.27;;
5452;SDS011;2749;53.576;9.822;2022-12-10T02:57:37;24.00;;;12.83;;
5452;SDS011;2749;53.576;9.822;2022-12-10T03:00:10;23.03;;;12.87;;
5452;SDS011;2749;53.576;9.822;2022-12-10T03:07:40;22.23;;;13.83;;
5452;SDS011;2749;53.576;9.822;2022-12-10T03:10:08;23.87;;;13.60;;
5452;SDS011;2749;53.576;9.822;2022-12-10T03:12:41;21.37;;;12.50;;
5452;SDS011;2749;53.576;9.822;2022-12-10T03:15:09;18.70;;;11.63;;
5452;SDS011;2749;53.576;9.822;2022-12-10T03:17:36;25.77;;;14.20;;
5452;SDS011;2749;53.576;9.822;2022-12-10T03:20:03;20.50;;;13.57;;
5452;SDS011;2749;53.576;9.822;2022-12-10T03:22:30;17.40;;;12.13;;
5452;SDS011;2749;53.576;9.822;2022-12-10T03:24:57;20.27;;;13.50;;
5452;SDS011;2749;53.576;9.822;2022-12-10T03:27:23;17.57;;;12.10;;
5452;SDS011;2749;53.576;9.822;2022-12-10T03:29:53;19.60;;;14.33;;
5452;SDS011;2749;53.576;9.822;2022-12-10T03:32:23;18.57;;;12.87;;
5452;SDS011;2749;53.576;9.822;2022-12-10T03:34:54;16.77;;;10.80;;
5452;SDS011;2749;53.576;9.822;2022-12-10T03:37:21;24.00;;;13.67;;
5452;SDS011;2749;53.576;9.822;2022-12-10T03:39:48;15.37;;;11.60;;
5452;SDS011;2749;53.576;9.822;2022-12-10T03:42:15;20.30;;;12.90;;
5452;SDS011;2749;53.576;9.822;2022-12-10T03:44:41;22.47;;;13.00;;
5452;SDS011;2749;53.576;9.822;2022-12-10T03:47:07;15.53;;;11.10;;
5452;SDS011;2749;53.576;9.822;2022-12-10T03:49:34;21.67;;;12.73;;
5452;SDS011;2749;53.576;9.822;2022-12-10T03:52:00;14.63;;;9.73;;
5452;SDS011;2749;53.576;9.822;2022-12-10T03:54:26;13.77;;;10.07;;
5452;SDS011;2749;53.576;9.822;2022-12-10T03:56:52;16.43;;;11.03;;
5452;SDS011;2749;53.576;9.822;2022-12-10T03:59:18;18.10;;;11.97;;
5452;SDS011;2749;53.576;9.822;2022-12-10T04:01:44;19.30;;;13.33;;
5452;SDS011;2749;53.576;9.822;2022-12-10T04:04:11;22.40;;;14.20;;
5452;SDS011;2749;53.576;9.822;2022-12-10T04:06:37;17.97;;;11.77;;
5452;SDS011;2749;53.576;9.822;2022-12-10T04:09:04;15.87;;;12.10;;
5452;SDS011;2749;53.576;9.822;2022-12-10T04:11:30;16.80;;;10.87;;
5452;SDS011;2749;53.576;9.822;2022-12-10T04:13:56;17.57;;;10.83;;
5452;SDS011;2749;53.576;9.822;2022-12-10T04:16:40;17.80;;;11.50;;
5452;SDS011;2749;53.576;9.822;2022-12-10T04:19:08;14.50;;;10.50;;
5452;SDS011;2749;53.576;9.822;2022-12-10T04:21:35;13.47;;;9.73;;
5452;SDS011;2749;53.576;9.822;2022-12-10T04:24:20;17.47;;;11.10;;
5452;SDS011;2749;53.576;9.822;2022-12-10T04:27:06;19.97;;;10.80;;
5452;SDS011;2749;53.576;9.822;2022-12-10T04:29:34;15.57;;;10.63;;
5452;SDS011;2749;53.576;9.822;2022-12-10T04:32:00;14.40;;;9.77;;
5452;SDS011;2749;53.576;9.822;2022-12-10T04:34:26;13.97;;;9.60;;
5452;SDS011;2749;53.576;9.822;2022-12-10T04:36:52;14.00;;;10.07;;
5452;SDS011;2749;53.576;9.822;2022-12-10T04:39:18;12.47;;;9.17;;
5452;SDS011;2749;53.576;9.822;2022-12-10T04:41:45;13.97;;;10.37;;
5452;SDS011;2749;53.576;9.822;2022-12-10T04:44:12;15.30;;;12.13;;
5452;SDS011;2749;53.576;9.822;2022-12-10T04:46:38;14.87;;;10.30;;
5452;SDS011;2749;53.576;9.822;2022-12-10T04:49:04;12.87;;;9.53;;
5452;SDS011;2749;53.576;9.822;2022-12-10T04:51:31;14.73;;;10.10;;
5452;SDS011;2749;53.576;9.822;2022-12-10T04:53:57;17.40;;;10.07;;
5452;SDS011;2749;53.576;9.822;2022-12-10T04:56:23;18.80;;;11.00;;
5452;SDS011;2749;53.576;9.822;2022-12-10T04:58:49;16.13;;;10.87;;
5452;SDS011;2749;53.576;9.822;2022-12-10T05:01:15;13.47;;;9.73;;
5452;SDS011;2749;53.576;9.822;2022-12-10T05:03:43;16.43;;;11.00;;
5452;SDS011;2749;53.576;9.822;2022-12-10T05:06:10;13.43;;;10.17;;
5452;SDS011;2749;53.576;9.822;2022-12-10T05:08:37;20.30;;;11.87;;
5452;SDS011;2749;53.576;9.822;2022-12-10T05:11:03;21.90;;;12.80;;
5452;SDS011;2749;53.576;9.822;2022-12-10T05:13:29;16.50;;;10.70;;
5452;SDS011;2749;53.576;9.822;2022-12-10T05:15:55;12.77;;;9.57;;
5452;SDS011;2749;53.576;9.822;2022-12-10T05:18:21;14.13;;;9.70;;
5452;SDS011;2749;53.576;9.822;2022-12-10T05:20:47;12.80;;;9.90;;
5452;SDS011;2749;53.576;9.822;2022-12-10T05:23:13;15.73;;;11.33;;
5452;SDS011;2749;53.576;9.822;2022-12-10T05:26:11;12.90;;;10.27;;
5452;SDS011;2749;53.576;9.822;2022-12-10T05:28:38;12.50;;;9.33;;
5452;SDS011;2749;53.576;9.822;2022-12-10T05:31:05;13.60;;;11.30;;
5452;SDS011;2749;53.576;9.822;2022-12-10T05:33:31;11.80;;;9.27;;
5452;SDS011;2749;53.576;9.822;2022-12-10T05:35:58;14.13;;;9.93;;
5452;SDS011;2749;53.576;9.822;2022-12-10T05:38:25;14.30;;;9.60;;
5452;SDS011;2749;53.576;9.822;2022-12-10T05:40:51;16.50;;;9.97;;
5452;SDS011;2749;53.576;9.822;2022-12-10T05:43:17;15.13;;;11.70;;
5452;SDS011;2749;53.576;9.822;2022-12-10T05:45:43;19.40;;;12.07;;
5452;SDS011;2749;53.576;9.822;2022-12-10T05:48:10;19.13;;;12.73;;
5452;SDS011;2749;53.576;9.822;2022-12-10T05:50:36;13.03;;;9.03;;
5452;SDS011;2749;53.576;9.822;2022-12-10T05:53:02;12.10;;;10.33;;
5452;SDS011;2749;53.576;9.822;2022-12-10T05:55:28;15.83;;;10.50;;
5452;SDS011;2749;53.576;9.822;2022-12-10T05:57:54;13.10;;;10.10;;
5452;SDS011;2749;53.576;9.822;2022-12-10T06:00:20;17.87;;;11.30;;
5452;SDS011;2749;53.576;9.822;2022-12-10T06:02:48;13.50;;;8.83;;
5452;SDS011;2749;53.576;9.822;2022-12-10T06:05:14;12.67;;;10.00;;
5452;SDS011;2749;53.576;9.822;2022-12-10T06:07:40;16.27;;;9.80;;
5452;SDS011;2749;53.576;9.822;2022-12-10T06:10:06;10.70;;;8.17;;
5452;SDS011;2749;53.576;9.822;2022-12-10T06:12:32;15.10;;;9.10;;
5452;SDS011;2749;53.576;9.822;2022-12-10T06:14:58;11.70;;;8.70;;
5452;SDS011;2749;53.576;9.822;2022-12-10T06:17:24;11.60;;;8.57;;
5452;SDS011;2749;53.576;9.822;2022-12-10T06:19:50;13.07;;;9.87;;
5452;SDS011;2749;53.576;9.822;2022-12-10T06:22:16;14.53;;;9.27;;
5452;SDS011;2749;53.576;9.822;2022-12-10T06:24:42;12.93;;;9.07;;
5452;SDS011;2749;53.576;9.822;2022-12-10T06:27:08;12.80;;;9.27;;
5452;SDS011;2749;53.576;9.822;2022-12-10T06:29:34;11.87;;;9.70;;
5452;SDS011;2749;53.576;9.822;2022-12-10T06:32:00;11.57;;;8.77;;
5452;SDS011;2749;53.576;9.822;2022-12-10T06:34:26;11.60;;;8.30;;
5452;SDS011;2749;53.576;9.822;2022-12-10T06:36:52;13.90;;;7.23;;
5452;SDS011;2749;53.576;9.822;2022-12-10T06:39:18;10.63;;;7.80;;
5452;SDS011;2749;53.576;9.822;2022-12-10T06:41:44;15.93;;;11.23;;
5452;SDS011;2749;53.576;9.822;2022-12-10T06:44:11;13.83;;;7.97;;
5452;SDS011;2749;53.576;9.822;2022-12-10T06:46:37;16.90;;;10.77;;
5452;SDS011;2749;53.576;9.822;2022-12-10T06:49:03;15.90;;;10.23;;
5452;SDS011;2749;53.576;9.822;2022-12-10T06:51:29;13.70;;;8.80;;
5452;SDS011;2749;53.576;9.822;2022-12-10T06:53:55;13.57;;;9.83;;
5452;SDS011;2749;53.576;9.822;2022-12-10T06:56:21;15.50;;;10.93;;
5452;SDS011;2749;53.576;9.822;2022-12-10T06:58:47;14.50;;;8.90;;
5452;SDS011;2749;53.576;9.822;2022-12-10T07:01:15;18.30;;;9.93;;
5452;SDS011;2749;53.576;9.822;2022-12-10T07:03:41;16.03;;;10.17;;
5452;SDS011;2749;53.576;9.822;2022-12-10T07:06:07;13.90;;;10.00;;
5452;SDS011;2749;53.576;9.822;2022-12-10T07:08:34;10.10;;;8.70;;
5452;SDS011;2749;53.576;9.822;2022-12-10T07:11:03;10.90;;;7.93;;
5452;SDS011;2749;53.576;9.822;2022-12-10T07:13:29;10.97;;;9.50;;
5452;SDS011;2749;53.576;9.822;2022-12-10T07:15:54;12.97;;;8.57;;
5452;SDS011;2749;53.576;9.822;2022-12-10T07:18:20;15.20;;;10.33;;
5452;SDS011;2749;53.576;9.822;2022-12-10T07:20:46;13.47;;;8.83;;
5452;SDS011;2749;53.576;9.822;2022-12-10T07:23:12;15.73;;;8.80;;
5452;SDS011;2749;53.576;9.822;2022-12-10T07:25:38;14.80;;;10.47;;
5452;SDS011;2749;53.576;9.822;2022-12-10T07:28:04;15.53;;;9.33;;
5452;SDS011;2749;53.576;9.822;2022-12-10T07:30:30;15.43;;;10.73;;
5452;SDS011;2749;53.576;9.822;2022-12-10T07:32:57;17.27;;;10.57;;
5452;SDS011;2749;53.576;9.822;2022-12-10T07:35:22;13.43;;;9.80;;
5452;SDS011;2749;53.576;9.822;2022-12-10T07:37:48;14.67;;;11.00;;
5452;SDS011;2749;53.576;9.822;2022-12-10T07:40:14;13.83;;;9.20;;
5452;SDS011;2749;53.576;9.822;2022-12-10T07:42:40;10.70;;;8.80;;
5452;SDS011;2749;53.576;9.822;2022-12-10T07:45:06;14.33;;;9.57;;
5452;SDS011;2749;53.576;9.822;2022-12-10T07:47:34;15.10;;;10.20;;
5452;SDS011;2749;53.576;9.822;2022-12-10T07:50:01;12.90;;;9.67;;
5452;SDS011;2749;53.576;9.822;2022-12-10T07:52:27;11.27;;;8.20;;
5452;SDS011;2749;53.576;9.822;2022-12-10T07:54:52;16.63;;;10.00;;
5452;SDS011;2749;53.576;9.822;2022-12-10T07:57:18;12.60;;;8.80;;
5452;SDS011;2749;53.576;9.822;2022-12-10T07:59:44;12.10;;;10.00;;
5452;SDS011;2749;53.576;9.822;2022-12-10T08:02:10;11.70;;;8.10;;
5452;SDS011;2749;53.576;9.822;2022-12-10T08:04:36;12.77;;;9.30;;
5452;SDS011;2749;53.576;9.822;2022-12-10T08:07:02;11.10;;;8.37;;
5452;SDS011;2749;53.576;9.822;2022-12-10T08:09:28;17.97;;;10.63;;
5452;SDS011;2749;53.576;9.822;2022-12-10T08:11:54;11.37;;;8.60;;
5452;SDS011;2749;53.576;9.822;2022-12-10T08:14:20;13.90;;;9.73;;
5452;SDS011;2749;53.576;9.822;2022-12-10T08:16:46;11.93;;;9.53;;
5452;SDS011;2749;53.576;9.822;2022-12-10T08:19:12;11.63;;;8.37;;
5452;SDS011;2749;53.576;9.822;2022-12-10T08:21:38;13.10;;;8.60;;
5452;SDS011;2749;53.576;9.822;2022-12-10T08:24:04;13.23;;;8.00;;
5452;SDS011;2749;53.576;9.822;2022-12-10T08:26:31;12.00;;;8.07;;
5452;SDS011;2749;53.576;9.822;2022-12-10T08:28:57;12.60;;;9.40;;
5452;SDS011;2749;53.576;9.822;2022-12-10T08:31:24;14.80;;;8.70;;
5452;SDS011;2749;53.576;9.822;2022-12-10T08:33:50;11.77;;;7.20;;
5452;SDS011;2749;53.576;9.822;2022-12-10T08:36:16;11.00;;;8.70;;
5452;SDS011;2749;53.576;9.822;2022-12-10T08:38:43;14.40;;;9.07;;
5452;SDS011;2749;53.576;9.822;2022-12-10T08:41:10;16.03;;;9.47;;
5452;SDS011;2749;53.576;9.822;2022-12-10T08:43:36;15.27;;;9.27;;
5452;SDS011;2749;53.576;9.822;2022-12-10T08:46:02;11.93;;;9.47;;
5452;SDS011;2749;53.576;9.822;2022-12-10T08:48:28;12.60;;;9.20;;
5452;SDS011;2749;53.576;9.822;2022-12-10T08:50:54;13.97;;;9.20;;
5452;SDS011;2749;53.576;9.822;2022-12-10T08:53:20;13.17;;;9.70;;
5452;SDS011;2749;53.576;9.822;2022-12-10T08:55:46;13.27;;;8.40;;
5452;SDS011;2749;53.576;9.822;2022-12-10T08:58:14;11.67;;;8.67;;
5452;SDS011;2749;53.576;9.822;2022-12-10T09:00:40;14.10;;;9.63;;
5452;SDS011;2749;53.576;9.822;2022-12-10T09:03:07;12.07;;;9.10;;
5452;SDS011;2749;53.576;9.822;2022-12-10T09:05:33;12.07;;;9.27;;
5452;SDS011;2749;53.576;9.822;2022-12-10T09:07:59;11.60;;;9.47;;
5452;SDS011;2749;53.576;9.822;2022-12-10T09:10:25;10.20;;;8.23;;
5452;SDS011;2749;53.576;9.822;2022-12-10T09:12:51;11.90;;;10.37;;
5452;SDS011;2749;53.576;9.822;2022-12-10T09:15:17;11.47;;;8.50;;
5452;SDS011;2749;53.576;9.822;2022-12-10T09:17:43;14.33;;;9.60;;
5452;SDS011;2749;53.576;9.822;2022-12-10T09:20:09;13.90;;;9.77;;
5452;SDS011;2749;53.576;9.822;2022-12-10T09:22:35;12.03;;;9.73;;
5452;SDS011;2749;53.576;9.822;2022-12-10T09:25:05;13.13;;;8.47;;
5452;SDS011;2749;53.576;9.822;2022-12-10T09:27:31;12.57;;;8.47;;
5452;SDS011;2749;53.576;9.822;2022-12-10T09:29:57;12.37;;;8.87;;
5452;SDS011;2749;53.576;9.822;2022-12-10T09:32:23;10.60;;;9.50;;
5452;SDS011;2749;53.576;9.822;2022-12-10T09:34:52;11.67;;;9.30;;
5452;SDS011;2749;53.576;9.822;2022-12-10T09:37:18;11.00;;;8.00;;
5452;SDS011;2749;53.576;9.822;2022-12-10T09:39:45;13.53;;;8.00;;
5452;SDS011;2749;53.576;9.822;2022-12-10T09:44:52;12.37;;;8.33;;
5452;SDS011;2749;53.576;9.822;2022-12-10T09:47:36;9.47;;;7.53;;
5452;SDS011;2749;53.576;9.822;2022-12-10T09:50:22;10.17;;;8.50;;
5452;SDS011;2749;53.576;9.822;2022-12-10T09:52:49;13.47;;;8.47;;
5452;SDS011;2749;53.576;9.822;2022-12-10T09:55:19;12.60;;;8.97;;
5452;SDS011;2749;53.576;9.822;2022-12-10T09:57:46;9.30;;;8.20;;
5452;SDS011;2749;53.576;9.822;2022-12-10T10:02:45;9.83;;;8.10;;
5452;SDS011;2749;53.576;9.822;2022-12-10T10:05:13;10.00;;;8.20;;
5452;SDS011;2749;53.576;9.822;2022-12-10T10:07:43;12.63;;;9.17;;
5452;SDS011;2749;53.576;9.822;2022-12-10T10:12:48;11.73;;;8.20;;
5452;SDS011;2749;53.576;9.822;2022-12-10T10:15:16;12.20;;;8.17;;
5452;SDS011;2749;53.576;9.822;2022-12-10T10:17:44;10.60;;;8.50;;
5452;SDS011;2749;53.576;9.822;2022-12-10T10:20:12;13.07;;;8.73;;
5452;SDS011;2749;53.576;9.822;2022-12-10T10:22:38;8.70;;;7.63;;
5452;SDS011;2749;53.576;9.822;2022-12-10T10:25:05;13.60;;;8.30;;
5452;SDS011;2749;53.576;9.822;2022-12-10T10:27:31;12.40;;;8.00;;
5452;SDS011;2749;53.576;9.822;2022-12-10T10:29:59;9.03;;;6.40;;
5452;SDS011;2749;53.576;9.822;2022-12-10T10:35:01;11.97;;;8.53;;
5452;SDS011;2749;53.576;9.822;2022-12-10T10:37:29;11.20;;;9.03;;
5452;SDS011;2749;53.576;9.822;2022-12-10T10:39:55;12.50;;;9.40;;
5452;SDS011;2749;53.576;9.822;2022-12-10T10:44:53;10.37;;;8.50;;
5452;SDS011;2749;53.576;9.822;2022-12-10T10:47:24;13.37;;;9.27;;
5452;SDS011;2749;53.576;9.822;2022-12-10T10:49:51;11.27;;;9.40;;
5452;SDS011;2749;53.576;9.822;2022-12-10T10:52:18;13.57;;;9.73;;
5452;SDS011;2749;53.576;9.822;2022-12-10T10:54:44;13.03;;;8.50;;
5452;SDS011;2749;53.576;9.822;2022-12-10T10:57:11;10.37;;;8.63;;
5452;SDS011;2749;53.576;9.822;2022-12-10T10:59:37;12.67;;;8.63;;
5452;SDS011;2749;53.576;9.822;2022-12-10T11:02:16;14.13;;;8.80;;
5452;SDS011;2749;53.576;9.822;2022-12-10T11:04:50;10.13;;;9.10;;
5452;SDS011;2749;53.576;9.822;2022-12-10T11:07:38;11.47;;;8.60;;
5452;SDS011;2749;53.576;9.822;2022-12-10T11:10:12;12.03;;;8.80;;
5452;SDS011;2749;53.576;9.822;2022-12-10T11:12:40;12.10;;;8.87;;
5452;SDS011;2749;53.576;9.822;2022-12-10T11:17:53;10.70;;;8.43;;
5452;SDS011;2749;53.576;9.822;2022-12-10T11:20:26;12.70;;;9.50;;
5452;SDS011;2749;53.576;9.822;2022-12-10T11:22:54;12.10;;;8.37;;
5452;SDS011;2749;53.576;9.822;2022-12-10T11:25:23;10.03;;;8.60;;
5452;SDS011;2749;53.576;9.822;2022-12-10T11:27:56;9.50;;;8.37;;
5452;SDS011;2749;53.576;9.822;2022-12-10T11:30:26;11.20;;;7.73;;
5452;SDS011;2749;53.576;9.822;2022-12-10T11:37:59;10.10;;;8.07;;
5452;SDS011;2749;53.576;9.822;2022-12-10T11:40:30;13.13;;;8.00;;
5452;SDS011;2749;53.576;9.822;2022-12-10T11:43:04;14.27;;;9.07;;
5452;SDS011;2749;53.576;9.822;2022-12-10T11:45:42;8.17;;;7.37;;
5452;SDS011;2749;53.576;9.822;2022-12-10T11:50:57;11.17;;;8.30;;
5452;SDS011;2749;53.576;9.822;2022-12-10T11:53:34;10.60;;;8.13;;
5452;SDS011;2749;53.576;9.822;2022-12-10T11:56:07;16.87;;;10.13;;
5452;SDS011;2749;53.576;9.822;2022-12-10T11:58:55;9.83;;;7.47;;
5452;SDS011;2749;53.576;9.822;2022-12-10T12:03:56;10.53;;;8.30;;
5452;SDS011;2749;53.576;9.822;2022-12-10T12:09:01;10.17;;;8.10;;
5452;SDS011;2749;53.576;9.822;2022-12-10T12:16:48;10.30;;;8.27;;
5452;SDS011;2749;53.576;9.822;2022-12-10T12:19:16;13.53;;;8.20;;
5452;SDS011;2749;53.576;9.822;2022-12-10T12:21:43;13.03;;;8.20;;
5452;SDS011;2749;53.576;9.822;2022-12-10T12:24:12;12.33;;;8.90;;
5452;SDS011;2749;53.576;9.822;2022-12-10T12:26:44;7.63;;;6.87;;
5452;SDS011;2749;53.576;9.822;2022-12-10T12:32:10;10.90;;;7.70;;
5452;SDS011;2749;53.576;9.822;2022-12-10T12:34:50;9.30;;;7.83;;
5452;SDS011;2749;53.576;9.822;2022-12-10T12:37:17;9.80;;;8.00;;
5452;SDS011;2749;53.576;9.822;2022-12-10T12:39:46;12.33;;;8.10;;
5452;SDS011;2749;53.576;9.822;2022-12-10T12:42:22;10.57;;;9.17;;
5452;SDS011;2749;53.576;9.822;2022-12-10T12:44:56;14.07;;;10.03;;
5452;SDS011;2749;53.576;9.822;2022-12-10T12:49:51;13.53;;;8.67;;
5452;SDS011;2749;53.576;9.822;2022-12-10T12:55:00;11.60;;;8.53;;
5452;SDS011;2749;53.576;9.822;2022-12-10T12:57:36;14.00;;;8.87;;
5452;SDS011;2749;53.576;9.822;2022-12-10T13:00:09;8.60;;;7.73;;
5452;SDS011;2749;53.576;9.822;2022-12-10T13:02:42;14.93;;;10.87;;
5452;SDS011;2749;53.576;9.822;2022-12-10T13:05:13;11.43;;;9.30;;
5452;SDS011;2749;53.576;9.822;2022-12-10T13:07:40;13.90;;;9.97;;
5452;SDS011;2749;53.576;9.822;2022-12-10T13:15:16;14.30;;;10.73;;
5452;SDS011;2749;53.576;9.822;2022-12-10T13:22:55;14.27;;;9.60;;
5452;SDS011;2749;53.576;9.822;2022-12-10T13:25:36;11.90;;;9.00;;
5452;SDS011;2749;53.576;9.822;2022-12-10T13:28:17;29.63;;;13.60;;
5452;SDS011;2749;53.576;9.822;2022-12-10T13:31:06;10.60;;;9.00;;
5452;SDS011;2749;53.576;9.822;2022-12-10T13:33:48;14.03;;;8.60;;
5452;SDS011;2749;53.576;9.822;2022-12-10T13:36:25;8.47;;;7.53;;
5452;SDS011;2749;53.576;9.822;2022-12-10T13:38:56;10.20;;;8.03;;
5452;SDS011;2749;53.576;9.822;2022-12-10T13:41:22;14.60;;;9.83;;
5452;SDS011;2749;53.576;9.822;2022-12-10T13:47:21;9.13;;;6.37;;
5452;SDS011;2749;53.576;9.822;2022-12-10T13:49:49;11.17;;;8.10;;
5452;SDS011;2749;53.576;9.822;2022-12-10T13:52:19;10.60;;;8.90;;
5452;SDS011;2749;53.576;9.822;2022-12-10T13:54:58;9.43;;;7.77;;
5452;SDS011;2749;53.576;9.822;2022-12-10T14:00:00;14.47;;;9.70;;
5452;SDS011;2749;53.576;9.822;2022-12-10T14:02:52;11.53;;;9.57;;
5452;SDS011;2749;53.576;9.822;2022-12-10T14:05:24;13.37;;;10.10;;
5452;SDS011;2749;53.576;9.822;2022-12-10T14:07:53;16.17;;;9.23;;
5452;SDS011;2749;53.576;9.822;2022-12-10T14:10:23;10.43;;;8.77;;
5452;SDS011;2749;53.576;9.822;2022-12-10T14:12:51;14.20;;;8.87;;
5452;SDS011;2749;53.576;9.822;2022-12-10T14:15:19;11.17;;;8.50;;
5452;SDS011;2749;53.576;9.822;2022-12-10T14:17:48;9.20;;;7.60;;
5452;SDS011;2749;53.576;9.822;2022-12-10T14:20:17;15.00;;;11.40;;
5452;SDS011;2749;53.576;9.822;2022-12-10T14:22:48;12.70;;;9.67;;
5452;SDS011;2749;53.576;9.822;2022-12-10T14:25:16;13.03;;;9.30;;
5452;SDS011;2749;53.576;9.822;2022-12-10T14:27:43;15.43;;;9.30;;
5452;SDS011;2749;53.576;9.822;2022-12-10T14:30:16;12.60;;;9.13;;
5452;SDS011;2749;53.576;9.822;2022-12-10T14:32:43;14.63;;;8.70;;
5452;SDS011;2749;53.576;9.822;2022-12-10T14:35:14;15.00;;;9.70;;
5452;SDS011;2749;53.576;9.822;2022-12-10T14:37:42;14.23;;;10.80;;
5452;SDS011;2749;53.576;9.822;2022-12-10T14:40:08;13.70;;;11.20;;
5452;SDS011;2749;53.576;9.822;2022-12-10T14:42:37;14.03;;;8.20;;
5452;SDS011;2749;53.576;9.822;2022-12-10T14:45:04;12.70;;;8.63;;
5452;SDS011;2749;53.576;9.822;2022-12-10T14:47:37;12.30;;;9.50;;
5452;SDS011;2749;53.576;9.822;2022-12-10T14:50:04;16.10;;;10.70;;
5452;SDS011;2749;53.576;9.822;2022-12-10T14:52:33;13.07;;;9.77;;
5452;SDS011;2749;53.576;9.822;2022-12-10T14:55:04;14.10;;;9.60;;
5452;SDS011;2749;53.576;9.822;2022-12-10T14:57:31;13.30;;;9.37;;
5452;SDS011;2749;53.576;9.822;2022-12-10T15:00:03;11.80;;;8.47;;
5452;SDS011;2749;53.576;9.822;2022-12-10T15:02:30;18.07;;;9.90;;
5452;SDS011;2749;53.576;9.822;2022-12-10T15:04:57;15.07;;;10.07;;
5452;SDS011;2749;53.576;9.822;2022-12-10T15:07:24;13.87;;;9.27;;
5452;SDS011;2749;53.576;9.822;2022-12-10T15:09:51;14.00;;;8.93;;
5452;SDS011;2749;53.576;9.822;2022-12-10T15:12:20;12.33;;;9.70;;
5452;SDS011;2749;53.576;9.822;2022-12-10T15:14:48;14.87;;;9.43;;
5452;SDS011;2749;53.576;9.822;2022-12-10T15:19:59;10.87;;;8.90;;
5452;SDS011;2749;53.576;9.822;2022-12-10T15:22:26;11.47;;;8.90;;
5452;SDS011;2749;53.576;9.822;2022-12-10T15:24:52;13.57;;;12.13;;
5452;SDS011;2749;53.576;9.822;2022-12-10T15:27:19;12.93;;;8.97;;
5452;SDS011;2749;53.576;9.822;2022-12-10T15:29:46;13.97;;;9.67;;
5452;SDS011;2749;53.576;9.822;2022-12-10T15:32:22;15.83;;;9.70;;
5452;SDS011;2749;53.576;9.822;2022-12-10T15:34:55;13.70;;;9.93;;
5452;SDS011;2749;53.576;9.822;2022-12-10T15:37:27;12.17;;;8.70;;
5452;SDS011;2749;53.576;9.822;2022-12-10T15:39:57;14.60;;;9.53;;
5452;SDS011;2749;53.576;9.822;2022-12-10T15:42:31;16.30;;;9.63;;
5452;SDS011;2749;53.576;9.822;2022-12-10T15:45:02;13.50;;;9.03;;
5452;SDS011;2749;53.576;9.822;2022-12-10T15:47:29;15.90;;;9.30;;
5452;SDS011;2749;53.576;9.822;2022-12-10T15:49:57;14.50;;;10.70;;
5452;SDS011;2749;53.576;9.822;2022-12-10T15:52:28;16.23;;;11.00;;
5452;SDS011;2749;53.576;9.822;2022-12-10T15:54:54;15.60;;;9.80;;
5452;SDS011;2749;53.576;9.822;2022-12-10T15:57:22;13.20;;;10.00;;
5452;SDS011;2749;53.576;9.822;2022-12-10T15:59:49;14.43;;;10.40;;
5452;SDS011;2749;53.576;9.822;2022-12-10T16:05:00;19.40;;;11.27;;
5452;SDS011;2749;53.576;9.822;2022-12-10T16:07:26;17.50;;;11.80;;
5452;SDS011;2749;53.576;9.822;2022-12-10T16:09:52;14.27;;;10.20;;
5452;SDS011;2749;53.576;9.822;2022-12-10T16:12:18;15.97;;;10.60;;
5452;SDS011;2749;53.576;9.822;2022-12-10T16:14:49;12.00;;;10.53;;
5452;SDS011;2749;53.576;9.822;2022-12-10T16:17:15;18.07;;;12.57;;
5452;SDS011;2749;53.576;9.822;2022-12-10T16:19:41;18.63;;;11.63;;